Time;durP1;ratioP1;P1;durP2;ratioP2;P2;SDS_P1;SDS_P2;PMS_P1;PMS_P2;Temp;Humidity;BMP_temperature;BMP_pressure;BME280_temperature;BME280_humidity;BME280_pressure;Samples;Min_cycle;Max_cycle;Signal;HPM_P1;HPM_P2
2022/10/06 00:00:52;;;;;;;10.57;7.55;;;;;;;9.32;70.75;96131.16;5096858;28;20200;-72
2022/10/06 00:03:21;;;;;;;8.65;7.47;;;;;;;9.33;70.72;96141.03;5096510;28;20184;-72
2022/10/06 00:05:48;;;;;;;10.02;7.20;;;;;;;9.29;70.81;96137.28;5095811;28;20200;-72
2022/10/06 00:08:15;;;;;;;8.27;6.72;;;;;;;9.25;70.72;96147.31;5095663;28;20207;-72
2022/10/06 00:10:42;;;;;;;7.57;6.40;;;;;;;9.23;70.57;96141.34;5096700;28;20185;-72
2022/10/06 00:13:10;;;;;;;8.55;7.22;;;;;;;9.20;70.71;96150.22;5096378;28;20581;-72
2022/10/06 00:15:37;;;;;;;10.77;7.45;;;;;;;9.17;70.76;96148.91;5095999;28;20208;-72
2022/10/06 00:18:04;;;;;;;10.82;7.43;;;;;;;9.17;70.71;96137.91;5095656;28;20232;-72
2022/10/06 00:20:31;;;;;;;9.43;7.50;;;;;;;9.13;70.67;96134.97;5095912;28;20223;-72
2022/10/06 00:22:58;;;;;;;9.73;7.22;;;;;;;9.11;70.82;96134.50;5096730;28;20205;-72
2022/10/06 00:25:27;;;;;;;8.40;7.03;;;;;;;9.11;71.11;96141.91;5095557;28;20196;-72
2022/10/06 00:27:53;;;;;;;8.68;6.72;;;;;;;9.13;71.07;96134.97;5096501;28;20215;-72
2022/10/06 00:30:23;;;;;;;8.85;7.55;;;;;;;9.14;71.05;96139.34;5095655;28;20192;-72
2022/10/06 00:32:52;;;;;;;9.05;7.10;;;;;;;9.13;71.04;96125.91;5095467;28;20193;-72
2022/10/06 00:35:20;;;;;;;8.50;6.88;;;;;;;9.10;70.95;96127.34;5095365;28;20196;-72
2022/10/06 00:37:46;;;;;;;7.53;6.70;;;;;;;9.10;71.02;96124.59;5095866;28;20228;-72
2022/10/06 00:40:13;;;;;;;11.35;8.15;;;;;;;9.07;71.20;96125.22;5095332;28;20228;-74
2022/10/06 00:42:52;;;;;;;13.05;8.40;;;;;;;9.06;71.27;96122.81;5095775;28;20200;-73
2022/10/06 00:45:26;;;;;;;12.48;7.95;;;;;;;9.03;70.63;96112.44;5096276;28;20490;-73
2022/10/06 00:47:54;;;;;;;9.35;7.80;;;;;;;9.01;70.84;96111.94;5096127;28;20180;-72
2022/10/06 00:50:21;;;;;;;11.30;8.02;;;;;;;8.97;70.94;96110.94;5096005;28;20279;-72
2022/10/06 00:52:48;;;;;;;9.23;7.57;;;;;;;8.94;71.14;96109.66;5095881;28;20188;-73
2022/10/06 00:55:15;;;;;;;11.30;7.40;;;;;;;8.94;71.37;96095.09;5095514;28;20200;-72
2022/10/06 00:57:43;;;;;;;10.05;7.38;;;;;;;8.97;71.25;96099.94;5094320;28;20196;-72
2022/10/06 01:00:11;;;;;;;9.20;6.82;;;;;;;8.97;71.28;96095.25;5095183;28;20231;-72
2022/10/06 01:02:42;;;;;;;9.63;7.53;;;;;;;8.90;71.10;96094.91;5094575;28;20628;-73
2022/10/06 01:05:10;;;;;;;9.07;7.43;;;;;;;8.87;71.21;96085.34;5095145;28;20239;-73
2022/10/06 01:07:37;;;;;;;9.45;7.32;;;;;;;8.85;71.08;96092.28;5094349;28;20196;-72
2022/10/06 01:10:04;;;;;;;8.95;6.90;;;;;;;8.84;70.99;96085.97;5094716;28;20193;-72
2022/10/06 01:12:32;;;;;;;9.32;7.18;;;;;;;8.82;70.87;96087.41;5094481;28;20300;-72
2022/10/06 01:14:59;;;;;;;8.75;6.65;;;;;;;8.81;71.00;96096.78;5095069;28;20207;-73
2022/10/06 01:17:32;;;;;;;8.20;7.20;;;;;;;8.78;71.20;96078.16;5095123;28;20207;-72
2022/10/06 01:20:01;;;;;;;8.80;7.13;;;;;;;8.78;71.29;96075.41;5094742;28;20215;-72
2022/10/06 01:22:30;;;;;;;8.80;7.10;;;;;;;8.77;71.21;96073.81;5094754;28;20203;-72
2022/10/06 01:24:57;;;;;;;11.43;7.45;;;;;;;8.75;71.14;96073.28;5095335;28;20193;-73
2022/10/06 01:27:25;;;;;;;7.38;6.55;;;;;;;8.70;71.26;96073.44;5095214;28;20484;-73
2022/10/06 01:29:53;;;;;;;8.07;6.63;;;;;;;8.65;71.13;96074.41;5094766;28;20192;-72
2022/10/06 01:32:20;;;;;;;8.32;7.05;;;;;;;8.61;71.13;96074.22;5095550;28;20208;-72
2022/10/06 01:34:47;;;;;;;8.02;7.03;;;;;;;8.59;71.48;96067.41;5094620;28;20192;-72
2022/10/06 01:37:14;;;;;;;8.27;6.95;;;;;;;8.57;71.62;96067.72;5095208;28;20240;-73
2022/10/06 01:39:43;;;;;;;10.02;6.93;;;;;;;8.58;71.61;96071.28;5095429;28;20185;-73
2022/10/06 01:42:11;;;;;;;8.38;7.07;;;;;;;8.58;71.41;96069.34;5095213;28;20208;-74
2022/10/06 01:44:38;;;;;;;9.63;7.32;;;;;;;8.56;71.49;96073.53;5094561;28;20203;-72
2022/10/06 01:47:05;;;;;;;9.27;7.63;;;;;;;8.55;71.46;96067.22;5095540;28;20181;-73
2022/10/06 01:49:32;;;;;;;8.55;7.65;;;;;;;8.51;71.26;96082.72;5095327;28;20242;-73
2022/10/06 01:51:59;;;;;;;8.70;7.80;;;;;;;8.47;71.41;96068.00;5095254;28;20184;-73
2022/10/06 01:54:25;;;;;;;8.35;7.55;;;;;;;8.49;71.11;96071.22;5094628;28;20200;-73
2022/10/06 01:56:54;;;;;;;10.07;7.18;;;;;;;8.44;71.08;96071.38;5095121;28;20487;-73
2022/10/06 01:59:21;;;;;;;9.70;7.90;;;;;;;8.43;71.41;96083.50;5093945;28;20250;-73
2022/10/06 02:01:47;;;;;;;9.15;7.32;;;;;;;8.43;71.55;96078.00;5095208;28;20201;-72
2022/10/06 02:04:14;;;;;;;9.17;7.20;;;;;;;8.44;71.32;96071.38;5095213;28;20184;-73
2022/10/06 02:06:41;;;;;;;8.80;7.82;;;;;;;8.44;71.68;96077.69;5094770;28;20581;-73
2022/10/06 02:09:08;;;;;;;11.38;8.30;;;;;;;8.43;71.57;96078.00;5095890;28;20188;-72
2022/10/06 02:11:36;;;;;;;13.75;9.02;;;;;;;8.38;71.67;96075.38;5098971;28;20275;-72
2022/10/06 02:14:04;;;;;;;13.13;9.20;;;;;;;8.37;71.76;96080.06;5099019;28;20195;-72
2022/10/06 02:16:30;;;;;;;13.32;9.20;;;;;;;8.36;71.53;96074.84;5097739;28;20539;-73
2022/10/06 02:18:57;;;;;;;11.25;8.75;;;;;;;8.37;71.50;96074.56;5099025;28;20208;-72
2022/10/06 02:21:24;;;;;;;14.38;10.38;;;;;;;8.35;71.54;96078.72;5098891;28;20204;-73
2022/10/06 02:23:51;;;;;;;19.40;11.38;;;;;;;8.35;71.62;96078.72;5098293;28;20200;-74
2022/10/06 02:26:18;;;;;;;19.35;11.52;;;;;;;8.33;71.55;96073.53;5098651;28;20230;-73
2022/10/06 02:28:46;;;;;;;21.57;12.50;;;;;;;8.27;71.57;96071.22;5098691;28;20192;-73
2022/10/06 02:31:15;;;;;;;18.50;12.80;;;;;;;8.24;71.34;96066.34;5098794;28;20237;-73
2022/10/06 02:33:42;;;;;;;19.95;12.00;;;;;;;8.18;71.58;96071.19;5098187;28;20203;-72
2022/10/06 02:36:11;;;;;;;17.40;11.90;;;;;;;8.15;71.85;96063.56;5097563;28;20232;-72
2022/10/06 02:38:38;;;;;;;15.75;11.15;;;;;;;8.14;71.69;96072.94;5097735;28;20199;-72
2022/10/06 02:41:06;;;;;;;14.77;10.85;;;;;;;8.14;71.84;96078.44;5098676;28;20205;-73
2022/10/06 02:43:33;;;;;;;13.05;10.52;;;;;;;8.14;71.65;96076.50;5097928;28;20293;-73
2022/10/06 02:46:01;;;;;;;13.48;10.10;;;;;;;8.14;71.98;96079.25;5098590;28;20189;-72
2022/10/06 02:48:30;;;;;;;14.43;9.95;;;;;;;8.11;71.62;96082.59;5098152;28;20201;-72
2022/10/06 02:50:57;;;;;;;13.13;9.95;;;;;;;8.06;71.84;96071.75;5098590;28;20185;-73
2022/10/06 02:53:24;;;;;;;13.63;9.32;;;;;;;8.06;72.05;96082.75;5097607;28;20270;-73
2022/10/06 02:55:51;;;;;;;11.68;9.15;;;;;;;8.09;72.27;96082.09;5097387;28;20242;-72
2022/10/06 02:58:18;;;;;;;10.68;9.50;;;;;;;8.10;72.43;96094.72;5097642;28;20197;-72
2022/10/06 03:00:45;;;;;;;14.18;9.77;;;;;;;8.11;72.10;96088.09;5097072;28;20212;-72
2022/10/06 03:03:11;;;;;;;10.73;8.40;;;;;;;8.11;72.00;96082.59;5098049;28;20597;-72
2022/10/06 03:05:40;;;;;;;9.38;7.97;;;;;;;8.13;72.23;96082.28;5098128;28;20188;-73
2022/10/06 03:08:06;;;;;;;10.82;8.30;;;;;;;8.13;72.40;96080.38;5098119;28;20193;-72
2022/10/06 03:10:33;;;;;;;10.95;9.00;;;;;;;8.14;72.22;96084.75;5097087;28;20192;-72
2022/10/06 03:13:00;;;;;;;13.80;9.45;;;;;;;8.13;72.27;96085.88;5097690;28;20612;-72
2022/10/06 03:15:27;;;;;;;10.70;8.80;;;;;;;8.11;72.10;96079.88;5097999;28;20185;-72
2022/10/06 03:17:54;;;;;;;13.25;9.10;;;;;;;8.09;72.36;96084.03;5096729;28;20193;-72
2022/10/06 03:20:21;;;;;;;11.13;9.60;;;;;;;8.07;72.03;96076.13;5097001;28;20204;-72
2022/10/06 03:22:49;;;;;;;11.90;8.93;;;;;;;8.01;71.96;96077.34;5096671;28;20231;-71
2022/10/06 03:25:16;;;;;;;11.73;8.60;;;;;;;7.95;71.75;96084.94;5096899;28;20203;-71
2022/10/06 03:27:42;;;;;;;11.55;8.70;;;;;;;7.96;72.10;96078.31;5096987;28;20196;-71
2022/10/06 03:30:10;;;;;;;10.15;7.97;;;;;;;7.92;72.02;96071.81;5096983;28;20189;-72
2022/10/06 03:32:37;;;;;;;10.97;7.80;;;;;;;7.88;71.56;96080.97;5097211;28;20216;-72
2022/10/06 03:35:04;;;;;;;10.65;8.05;;;;;;;7.88;71.93;96073.56;5097517;28;20200;-72
2022/10/06 03:37:30;;;;;;;9.45;7.95;;;;;;;7.87;71.81;96073.84;5096128;28;20232;-72
2022/10/06 03:39:59;;;;;;;9.18;8.18;;;;;;;7.83;71.99;96070.09;5096528;28;20200;-72
2022/10/06 03:42:26;;;;;;;9.67;8.00;;;;;;;7.82;72.08;96068.50;5096777;28;20212;-73
2022/10/06 03:44:53;;;;;;;8.68;7.57;;;;;;;7.82;72.16;96072.03;5097125;28;20566;-72
2022/10/06 03:47:19;;;;;;;11.40;8.37;;;;;;;7.82;72.27;96066.56;5097442;28;20199;-72
2022/10/06 03:49:46;;;;;;;9.02;7.57;;;;;;;7.82;71.84;96065.75;5097006;28;20184;-72
2022/10/06 03:52:13;;;;;;;11.50;8.67;;;;;;;7.81;72.20;96062.19;5096538;28;20189;-72
2022/10/06 03:54:40;;;;;;;11.83;8.63;;;;;;;7.78;72.56;96062.81;5095997;28;20193;-72
2022/10/06 03:57:08;;;;;;;12.40;9.20;;;;;;;7.81;72.39;96066.88;5095937;28;20624;-72
2022/10/06 03:59:35;;;;;;;10.07;8.18;;;;;;;7.81;72.49;96062.19;5097195;28;20185;-72
2022/10/06 04:02:02;;;;;;;12.50;8.67;;;;;;;7.79;72.34;96066.38;5096114;28;20223;-72
2022/10/06 04:04:28;;;;;;;12.38;9.40;;;;;;;7.79;72.49;96069.09;5097023;28;20180;-72
2022/10/06 04:06:55;;;;;;;12.80;9.80;;;;;;;7.77;72.88;96068.59;5095848;28;20209;-72
2022/10/06 04:09:22;;;;;;;13.82;10.93;;;;;;;7.77;72.73;96063.94;5096063;28;20253;-72
2022/10/06 04:11:50;;;;;;;12.53;10.47;;;;;;;7.78;73.20;96065.56;5096266;28;20196;-73
2022/10/06 04:14:18;;;;;;;10.07;9.07;;;;;;;7.81;73.30;96073.19;5095961;28;20200;-73
2022/10/06 04:16:46;;;;;;;14.40;11.57;;;;;;;7.78;72.88;96065.56;5096354;28;20176;-74
2022/10/06 04:19:15;;;;;;;12.53;9.80;;;;;;;7.77;72.77;96069.44;5096096;28;20203;-74
2022/10/06 04:21:43;;;;;;;8.35;7.00;;;;;;;7.79;73.07;96080.91;5096710;28;20215;-74
2022/10/06 04:24:11;;;;;;;6.30;5.70;;;;;;;7.80;73.25;96068.78;5095970;28;20197;-73
2022/10/06 04:26:40;;;;;;;5.95;5.15;;;;;;;7.81;73.15;96067.69;5095240;28;20644;-74
2022/10/06 04:29:07;;;;;;;5.30;4.80;;;;;;;7.83;72.90;96062.69;5096328;28;20188;-73
2022/10/06 04:31:37;;;;;;;5.90;5.28;;;;;;;7.86;73.10;96074.97;5095400;28;20242;-74
2022/10/06 04:34:05;;;;;;;6.78;5.55;;;;;;;7.85;72.71;96074.19;5095695;28;20257;-74
2022/10/06 04:36:34;;;;;;;14.80;10.07;;;;;;;7.82;72.63;96079.47;5096309;28;20244;-74
2022/10/06 04:39:02;;;;;;;14.60;9.48;;;;;;;7.78;72.69;96082.03;5095405;28;20208;-74
2022/10/06 04:41:31;;;;;;;21.27;10.63;;;;;;;7.76;72.66;96077.97;5096360;28;20200;-74
2022/10/06 04:43:58;;;;;;;14.90;8.40;;;;;;;7.73;72.75;96082.13;5095493;28;20192;-74
2022/10/06 04:46:25;;;;;;;14.32;9.23;;;;;;;7.68;72.59;96080.31;5095391;28;20211;-74
2022/10/06 04:48:54;;;;;;;14.35;8.80;;;;;;;7.67;72.65;96070.47;5095010;28;20200;-74
2022/10/06 04:51:22;;;;;;;11.60;7.63;;;;;;;7.70;72.71;96072.59;5094833;28;20226;-74
2022/10/06 04:53:49;;;;;;;10.90;8.48;;;;;;;7.71;72.27;96082.44;5095217;28;20203;-75
2022/10/06 04:56:17;;;;;;;12.30;8.45;;;;;;;7.69;72.58;96087.44;5095071;28;20203;-74
2022/10/06 04:58:45;;;;;;;18.10;10.27;;;;;;;7.65;72.35;96089.19;5094882;28;20551;-75
2022/10/06 05:01:13;;;;;;;20.45;10.63;;;;;;;7.65;72.54;96091.13;5094974;28;20200;-74
2022/10/06 05:03:40;;;;;;;18.40;12.38;;;;;;;7.66;72.75;96090.81;5095172;28;20199;-74
2022/10/06 05:06:11;;;;;;;19.98;11.85;;;;;;;7.68;72.92;96091.31;5094828;28;20569;-74
2022/10/06 05:08:38;;;;;;;21.33;11.75;;;;;;;7.67;73.02;96097.94;5094920;28;20196;-75
2022/10/06 05:11:07;;;;;;;21.38;11.45;;;;;;;7.68;72.77;96099.53;5094902;28;20215;-74
2022/10/06 05:13:35;;;;;;;16.13;10.88;;;;;;;7.68;72.92;96099.53;5095772;28;20238;-74
2022/10/06 05:16:03;;;;;;;19.67;10.70;;;;;;;7.72;72.86;96094.25;5094731;28;20196;-74
2022/10/06 05:18:30;;;;;;;15.35;9.75;;;;;;;7.70;72.63;96097.31;5095441;28;20184;-74
2022/10/06 05:20:58;;;;;;;15.20;9.60;;;;;;;7.71;72.73;96089.88;5095287;28;20579;-74
2022/10/06 05:23:27;;;;;;;12.02;8.93;;;;;;;7.71;72.86;96087.94;5095542;28;20215;-74
2022/10/06 05:25:56;;;;;;;20.00;9.15;;;;;;;7.75;72.98;96087.34;5095541;28;20195;-75
2022/10/06 05:28:24;;;;;;;14.35;10.07;;;;;;;7.77;73.42;96091.41;5095200;28;20219;-74
2022/10/06 05:30:58;;;;;;;11.13;7.82;;;;;;;7.84;73.34;96085.44;5095172;28;20189;-74
2022/10/06 05:33:26;;;;;;;10.27;8.20;;;;;;;7.88;73.18;96083.72;5095307;28;20249;-74
2022/10/06 05:35:53;;;;;;;13.68;8.65;;;;;;;7.90;73.16;96089.72;5094968;28;20272;-74
2022/10/06 05:38:20;;;;;;;11.18;7.80;;;;;;;7.94;73.24;96080.53;5095132;28;20204;-74
2022/10/06 05:40:49;;;;;;;10.40;8.80;;;;;;;8.02;73.32;96081.72;5094081;28;20195;-74
2022/10/06 05:43:16;;;;;;;14.25;9.52;;;;;;;8.07;73.48;96086.31;5097364;28;20212;-74
2022/10/06 05:45:52;;;;;;;13.68;10.00;;;;;;;8.12;73.26;96083.41;5102265;28;20188;-74
2022/10/06 05:48:19;;;;;;;11.05;9.05;;;;;;;8.16;73.59;96093.47;5101693;28;20561;-74
2022/10/06 05:50:46;;;;;;;11.68;9.38;;;;;;;8.22;73.18;96094.16;5101188;28;20203;-74
2022/10/06 05:53:14;;;;;;;12.85;9.55;;;;;;;8.28;73.34;96090.16;5102215;28;20263;-75
2022/10/06 05:55:42;;;;;;;11.25;9.02;;;;;;;8.34;73.34;96091.66;5100789;28;20203;-74
2022/10/06 05:58:10;;;;;;;9.82;8.57;;;;;;;8.38;73.40;96100.91;5101332;28;20303;-74
2022/10/06 06:00:37;;;;;;;14.30;8.60;;;;;;;8.43;73.25;96113.75;5101021;28;20188;-74
2022/10/06 06:03:04;;;;;;;13.02;9.57;;;;;;;8.47;73.39;96112.00;5101680;28;20552;-74
2022/10/06 06:05:31;;;;;;;15.82;9.25;;;;;;;8.51;73.71;96112.16;5100946;28;20196;-74
2022/10/06 06:07:58;;;;;;;11.05;8.55;;;;;;;8.55;73.84;96110.41;5102033;28;20259;-74
2022/10/06 06:10:24;;;;;;;13.25;9.15;;;;;;;8.56;73.79;96110.09;5100952;28;20210;-74
2022/10/06 06:12:51;;;;;;;11.30;8.15;;;;;;;8.60;73.89;96108.31;5101043;28;20655;-74
2022/10/06 06:18:04;;;;;;;8.95;8.05;;;;;;;8.68;73.61;96107.59;5100718;28;20207;-74
2022/10/06 06:20:31;;;;;;;10.73;8.07;;;;;;;8.72;73.43;96109.72;5102376;28;20196;-74
2022/10/06 06:22:58;;;;;;;12.27;8.52;;;;;;;8.74;73.28;96111.00;5101672;28;20640;-74
2022/10/06 06:25:25;;;;;;;9.98;8.10;;;;;;;8.77;73.33;96110.38;5101546;28;20200;-75
2022/10/06 06:27:54;;;;;;;11.85;8.50;;;;;;;8.80;73.59;96108.94;5101297;28;20200;-73
2022/10/06 06:30:24;;;;;;;8.75;7.82;;;;;;;8.86;73.30;96110.41;5101765;28;20233;-72
2022/10/06 06:32:50;;;;;;;9.32;8.43;;;;;;;8.90;73.20;96117.72;5101544;28;20287;-73
2022/10/06 06:35:17;;;;;;;9.82;7.47;;;;;;;8.97;72.98;96117.28;5101303;28;20211;-72
2022/10/06 06:37:46;;;;;;;9.02;7.75;;;;;;;8.99;72.91;96111.44;5101349;28;20227;-72
2022/10/06 06:40:13;;;;;;;9.68;8.13;;;;;;;9.07;73.19;96116.16;5100638;28;20204;-72
2022/10/06 06:42:40;;;;;;;9.65;8.75;;;;;;;9.15;73.15;96115.41;5100544;28;20227;-72
2022/10/06 06:45:08;;;;;;;9.85;8.80;;;;;;;9.25;73.86;96114.28;5101412;28;20211;-72
2022/10/06 06:47:36;;;;;;;11.02;8.65;;;;;;;9.33;73.60;96116.25;5100600;28;20196;-72
2022/10/06 06:50:09;;;;;;;11.73;10.27;;;;;;;9.39;73.63;96109.47;5101374;28;20430;-73
2022/10/06 06:52:35;;;;;;;12.82;11.63;;;;;;;9.48;73.56;96109.50;5101381;28;20269;-72
2022/10/06 06:55:02;;;;;;;10.63;9.63;;;;;;;9.56;73.49;96114.22;5098204;28;20211;-71
2022/10/06 06:57:29;;;;;;;10.77;9.77;;;;;;;9.64;73.58;96108.72;5097485;28;20200;-71
2022/10/06 06:59:56;;;;;;;12.95;11.57;;;;;;;9.73;73.66;96107.91;5097357;28;20200;-71
2022/10/06 07:02:25;;;;;;;14.27;12.85;;;;;;;9.80;73.56;96109.09;5097265;28;20220;-71
2022/10/06 07:04:53;;;;;;;15.75;13.25;;;;;;;9.85;73.28;96099.84;5097304;28;20673;-71
2022/10/06 07:07:20;;;;;;;16.45;14.65;;;;;;;9.96;73.88;96092.06;5097443;28;20230;-71
2022/10/06 07:09:46;;;;;;;15.52;13.95;;;;;;;10.05;73.37;96095.63;5097143;28;20192;-71
2022/10/06 07:12:13;;;;;;;15.82;13.55;;;;;;;10.12;72.66;96101.44;5097967;28;20199;-71
2022/10/06 07:25:05;;;;;;;13.48;12.18;;;;;;;10.20;72.62;96097.88;5097532;28;20511;-71
2022/10/06 07:25:52;;;;;;;13.43;12.13;;;;;;;10.54;70.65;96090.75;5049944;28;20496;-71
2022/10/06 07:28:21;;;;;;;12.82;11.50;;;;;;;10.64;71.13;96087.66;5096923;28;20203;-71
2022/10/06 07:30:49;;;;;;;13.45;12.05;;;;;;;10.77;70.92;96085.81;5096911;28;20292;-71
2022/10/06 07:33:16;;;;;;;11.27;10.02;;;;;;;10.84;69.46;96078.63;5097488;28;20181;-72
2022/10/06 07:35:44;;;;;;;14.63;10.00;;;;;;;10.89;69.04;96074.06;5096228;28;20690;-74
2022/10/06 07:38:11;;;;;;;12.38;10.38;;;;;;;10.96;69.42;96075.16;5097652;28;20190;-70
2022/10/06 07:40:38;;;;;;;13.80;10.02;;;;;;;11.05;69.21;96073.19;5096403;28;20207;-72
2022/10/06 07:43:05;;;;;;;13.02;9.30;;;;;;;11.14;68.59;96075.91;5096722;28;20208;-70
2022/10/06 07:45:39;;;;;;;11.13;9.48;;;;;;;11.25;68.34;96077.16;5097465;28;20185;-70
2022/10/06 07:48:09;;;;;;;11.27;10.18;;;;;;;11.35;68.07;96077.94;5096698;28;20195;-70
2022/10/06 07:50:38;;;;;;;10.65;9.65;;;;;;;11.44;66.90;96078.72;5097229;28;20196;-70
2022/10/06 07:53:07;;;;;;;11.63;10.32;;;;;;;11.58;68.01;96079.25;5096327;28;20249;-70
2022/10/06 07:55:35;;;;;;;11.70;10.55;;;;;;;11.67;66.76;96085.53;5096493;28;20555;-70
2022/10/06 07:58:01;;;;;;;11.73;10.52;;;;;;;11.78;67.02;96083.19;5096636;28;20203;-70
2022/10/06 08:00:28;;;;;;;12.15;10.95;;;;;;;11.89;67.59;96078.09;5097199;28;20200;-72
2022/10/06 08:02:55;;;;;;;12.45;11.13;;;;;;;11.97;66.74;96080.78;5097012;28;20204;-70
2022/10/06 08:05:22;;;;;;;13.82;12.40;;;;;;;12.09;66.45;96082.00;5096695;28;20633;-70
2022/10/06 08:07:49;;;;;;;18.27;16.67;;;;;;;12.20;66.34;96078.50;5094973;28;20211;-69
2022/10/06 08:10:19;;;;;;;17.83;15.98;;;;;;;12.31;65.83;96081.66;5095653;28;20553;-70
2022/10/06 08:12:46;;;;;;;15.80;14.35;;;;;;;12.45;65.59;96081.34;5096094;28;20189;-69
2022/10/06 08:15:13;;;;;;;14.43;12.93;;;;;;;12.55;64.59;96080.94;5096528;28;20200;-69
2022/10/06 08:17:40;;;;;;;14.00;12.68;;;;;;;12.65;64.51;96071.41;5096924;28;20188;-70
2022/10/06 08:20:09;;;;;;;12.65;11.43;;;;;;;12.80;64.13;96076.28;5097009;28;20508;-70
2022/10/06 08:22:37;;;;;;;11.18;10.18;;;;;;;12.86;62.11;96080.44;5096967;28;20215;-70
2022/10/06 08:25:05;;;;;;;12.70;11.45;;;;;;;12.91;62.70;96066.38;5096833;28;20188;-70
2022/10/06 08:27:33;;;;;;;10.57;9.45;;;;;;;13.06;62.67;96067.66;5095974;28;20204;-70
2022/10/06 08:30:00;;;;;;;9.18;8.23;;;;;;;13.25;63.08;96069.88;5096413;28;20651;-70
2022/10/06 08:32:27;;;;;;;14.55;10.32;;;;;;;13.43;62.73;96068.50;5095764;28;20192;-70
2022/10/06 08:34:54;;;;;;;11.75;10.40;;;;;;;13.53;61.57;96067.25;5096323;28;20617;-71
2022/10/06 08:37:22;;;;;;;12.07;9.88;;;;;;;13.52;59.67;96064.81;5095327;28;20232;-70
2022/10/06 08:39:50;;;;;;;11.05;9.95;;;;;;;13.56;60.38;96069.31;5095658;28;20279;-71
2022/10/06 08:42:22;;;;;;;11.45;10.38;;;;;;;13.61;60.24;96063.53;5095038;28;20200;-71
2022/10/06 08:44:55;;;;;;;11.85;10.32;;;;;;;13.72;61.10;96061.91;5095661;28;20203;-72
2022/10/06 08:47:23;;;;;;;12.55;10.50;;;;;;;13.82;60.49;96057.84;5095657;28;20199;-70
2022/10/06 08:49:53;;;;;;;12.30;10.65;;;;;;;13.92;60.53;96062.09;5096520;28;20191;-71
2022/10/06 08:52:36;;;;;;;13.23;11.82;;;;;;;14.00;59.75;96052.81;5096251;28;20291;-71
2022/10/06 08:55:10;;;;;;;12.65;11.35;;;;;;;14.10;59.43;96048.75;5096660;28;20191;-71
2022/10/06 08:57:42;;;;;;;12.50;11.20;;;;;;;14.13;59.99;96045.28;5095735;28;20507;-71
2022/10/06 09:00:12;;;;;;;14.90;13.38;;;;;;;14.28;58.86;96052.84;5095849;28;20506;-72
2022/10/06 09:02:44;;;;;;;15.65;13.48;;;;;;;14.41;58.80;96046.06;5095044;28;20529;-70
2022/10/06 09:05:13;;;;;;;13.10;11.80;;;;;;;14.50;58.24;96043.19;5095902;28;20222;-71
2022/10/06 09:07:47;;;;;;;16.13;12.63;;;;;;;14.66;58.84;96057.09;5095378;28;20184;-71
2022/10/06 09:10:39;;;;;;;12.52;10.65;;;;;;;14.81;59.48;96055.50;5095415;28;20192;-71
2022/10/06 09:13:09;;;;;;;15.52;13.95;;;;;;;14.92;56.75;96049.09;5093086;28;20212;-70
2022/10/06 09:15:45;;;;;;;15.13;13.65;;;;;;;14.99;57.39;96048.44;5095778;28;20193;-71
2022/10/06 09:18:17;;;;;;;15.35;13.68;;;;;;;14.99;55.83;96042.88;5095447;28;20184;-73
2022/10/06 09:20:51;;;;;;;13.90;12.38;;;;;;;15.03;56.23;96038.25;5096092;28;20196;-70
2022/10/06 09:23:46;;;;;;;14.05;12.60;;;;;;;15.14;55.75;96039.34;5095750;28;20232;-72
2022/10/06 09:26:05;;;;;;;16.77;12.32;;;;;;;15.30;56.99;96042.09;5094281;28;20231;-72
2022/10/06 09:28:33;;;;;;;16.85;12.85;;;;;;;15.39;55.95;96034.34;5095431;28;20585;-71
2022/10/06 09:31:03;;;;;;;13.65;10.82;;;;;;;15.42;55.86;96027.28;5095265;28;20242;-72
2022/10/06 09:33:37;;;;;;;13.13;11.57;;;;;;;15.48;56.38;96023.06;5095466;28;20587;-72
2022/10/06 09:36:08;;;;;;;15.88;11.80;;;;;;;15.68;56.76;96026.72;5095370;28;20239;-74
2022/10/06 09:38:51;;;;;;;10.77;9.85;;;;;;;15.81;54.89;96019.06;5094283;28;20535;-74
2022/10/06 09:41:18;;;;;;;12.68;11.00;;;;;;;15.94;55.20;96016.94;5095504;28;20195;-73
2022/10/06 09:43:57;;;;;;;14.50;10.65;;;;;;;15.95;54.39;96010.22;5094738;28;20287;-72
2022/10/06 09:46:33;;;;;;;11.90;10.60;;;;;;;16.08;53.48;96009.72;5095410;28;20320;-73
2022/10/06 09:49:18;;;;;;;13.95;10.25;;;;;;;16.29;54.80;96008.53;5094972;28;20537;-73
2022/10/06 09:52:02;;;;;;;13.45;10.73;;;;;;;16.50;53.97;96014.53;5095484;28;20199;-70
2022/10/06 09:54:30;;;;;;;11.02;9.95;;;;;;;16.55;52.14;96014.22;5094350;28;20200;-71
2022/10/06 09:56:58;;;;;;;9.80;8.90;;;;;;;16.65;52.51;96006.44;5095293;28;20195;-72
2022/10/06 09:59:32;;;;;;;9.50;8.52;;;;;;;16.72;52.55;96001.03;5094773;28;20266;-71
2022/10/06 10:02:03;;;;;;;8.75;8.05;;;;;;;16.76;53.21;96001.91;5095513;28;20199;-73
2022/10/06 10:04:31;;;;;;;9.85;8.93;;;;;;;16.86;51.90;96006.06;5095479;28;20204;-71
2022/10/06 10:07:15;;;;;;;10.93;8.80;;;;;;;16.94;52.52;96005.81;5093869;28;20219;-71
2022/10/06 10:09:41;;;;;;;9.68;8.68;;;;;;;17.04;52.04;96001.63;5095427;28;20253;-71
2022/10/06 10:12:30;;;;;;;15.30;12.40;;;;;;;17.15;51.12;95996.22;5094452;28;20261;-71
2022/10/06 10:15:00;;;;;;;18.38;14.05;;;;;;;17.20;50.75;95996.69;5094439;28;20250;-71
2022/10/06 10:17:38;;;;;;;14.93;11.63;;;;;;;17.28;50.76;95997.63;5094283;28;20204;-71
2022/10/06 10:20:17;;;;;;;11.18;9.95;;;;;;;17.22;49.15;95990.78;5095233;28;20283;-71
2022/10/06 10:22:46;;;;;;;11.10;9.55;;;;;;;17.26;49.79;95995.22;5094692;28;20218;-71
2022/10/06 10:25:24;;;;;;;10.30;9.20;;;;;;;17.31;49.10;95994.09;5094386;28;20184;-71
2022/10/06 10:27:57;;;;;;;11.25;9.52;;;;;;;17.39;49.14;95984.66;5094651;28;20648;-71
2022/10/06 10:30:27;;;;;;;12.30;9.82;;;;;;;17.50;49.94;95991.22;5095524;28;20250;-71
2022/10/06 10:33:00;;;;;;;9.95;8.95;;;;;;;17.61;48.55;95982.19;5098779;28;20189;-72
2022/10/06 10:35:29;;;;;;;9.75;8.85;;;;;;;17.71;48.70;95982.34;5098971;28;20249;-70
2022/10/06 10:38:00;;;;;;;10.30;7.88;;;;;;;17.78;48.75;95982.47;5077823;28;20209;-73
2022/10/06 10:40:35;;;;;;;9.10;8.23;;;;;;;17.85;47.87;95975.38;5077789;28;20235;-74
2022/10/06 10:43:06;;;;;;;9.07;8.07;;;;;;;17.91;48.06;95971.09;5077976;28;20189;-72
2022/10/06 10:45:35;;;;;;;10.02;8.25;;;;;;;18.00;48.01;95968.81;5078014;28;20516;-72
2022/10/06 10:48:11;;;;;;;6.13;5.60;;;;;;;18.05;47.00;95962.91;5078360;28;20185;-72
2022/10/06 10:50:48;;;;;;;7.10;4.55;;;;;;;18.09;46.82;95960.16;5078281;28;20177;-72
2022/10/06 10:53:18;;;;;;;5.13;3.92;;;;;;;18.13;47.08;95961.78;5078641;28;20216;-72
2022/10/06 10:55:47;;;;;;;5.03;4.55;;;;;;;18.23;46.53;95961.13;5077398;28;20197;-72
2022/10/06 10:58:18;;;;;;;5.13;4.57;;;;;;;18.23;45.94;95949.97;5078282;28;20182;-72
2022/10/06 11:00:49;;;;;;;4.68;4.28;;;;;;;18.23;46.84;95951.94;5076925;28;20411;-73
2022/10/06 11:03:17;;;;;;;5.57;4.10;;;;;;;18.25;46.46;95950.38;5077653;28;20213;-73
2022/10/06 11:05:56;;;;;;;5.03;4.40;;;;;;;18.34;46.52;95947.28;5078040;28;20196;-73
2022/10/06 11:08:27;;;;;;;4.82;4.28;;;;;;;18.40;44.74;95947.72;5076920;28;20247;-73
2022/10/06 11:10:58;;;;;;;3.65;3.35;;;;;;;18.41;44.85;95940.94;5078042;28;20189;-73
2022/10/06 11:13:28;;;;;;;5.20;3.60;;;;;;;18.37;44.63;95945.69;5077445;28;20193;-74
2022/10/06 11:16:19;;;;;;;5.38;3.30;;;;;;;18.44;45.69;95938.19;5076939;28;20319;-73
2022/10/06 11:19:00;;;;;;;4.05;2.60;;;;;;;18.61;45.62;95927.59;5076769;28;20208;-75
2022/10/06 11:21:27;;;;;;;3.20;2.60;;;;;;;18.65;43.82;95931.22;5077328;28;20567;-74
2022/10/06 11:23:57;;;;;;;2.72;2.38;;;;;;;18.67;43.18;95920.50;5076472;28;20220;-73
2022/10/06 11:26:47;;;;;;;2.63;2.42;;;;;;;18.61;41.62;95924.81;5077444;28;20193;-74
2022/10/06 11:29:22;;;;;;;2.90;2.63;;;;;;;18.58;41.25;95925.56;5075455;28;20303;-73
2022/10/06 11:31:57;;;;;;;3.80;3.05;;;;;;;18.58;42.06;95918.00;5076632;28;20575;-72
2022/10/06 11:34:25;;;;;;;5.18;3.22;;;;;;;18.60;42.37;95909.25;5076539;28;20188;-74
2022/10/06 11:36:56;;;;;;;2.80;2.60;;;;;;;18.58;40.50;95903.22;5087779;28;20240;-73
2022/10/06 11:39:27;;;;;;;3.20;2.90;;;;;;;18.45;39.85;95903.50;5096686;28;20203;-73
2022/10/06 11:41:58;;;;;;;2.72;2.33;;;;;;;18.41;39.72;95908.28;5097225;28;20192;-74
2022/10/06 11:44:31;;;;;;;4.20;2.67;;;;;;;18.42;39.61;95898.69;5097573;28;20201;-73
2022/10/06 11:46:59;;;;;;;2.72;2.53;;;;;;;18.42;40.26;95897.91;5097440;28;20211;-74
2022/10/06 11:49:50;;;;;;;2.30;2.10;;;;;;;18.44;37.36;95885.13;5097686;28;20203;-72
2022/10/06 11:52:52;;;;;;;3.08;2.20;;;;;;;18.52;39.15;95888.81;5096322;28;20220;-72